sensor_id;sensor_type;location;lat;lon;timestamp;pressure;altitude;pressure_sealevel;temperature;humidity
77877;BME280;67251;50.844;7.978;2023-05-15T00:01:04;98572.63;;;8.18;100.00
77877;BME280;67251;50.844;7.978;2023-05-15T00:03:29;98568.75;;;8.20;100.00
77877;BME280;67251;50.844;7.978;2023-05-15T00:05:55;98574.72;;;8.23;100.00
77877;BME280;67251;50.844;7.978;2023-05-15T00:08:21;98569.22;;;8.24;100.00
77877;BME280;67251;50.844;7.978;2023-05-15T00:10:46;98564.50;;;8.26;100.00
77877;BME280;67251;50.844;7.978;2023-05-15T00:13:12;98569.63;;;8.28;100.00
77877;BME280;67251;50.844;7.978;2023-05-15T00:15:37;98563.31;;;8.29;100.00
77877;BME280;67251;50.844;7.978;2023-05-15T00:18:03;98559.63;;;8.30;100.00
77877;BME280;67251;50.844;7.978;2023-05-15T00:20:28;98561.25;;;8.31;100.00
77877;BME280;67251;50.844;7.978;2023-05-15T00:22:54;98561.91;;;8.33;100.00
77877;BME280;67251;50.844;7.978;2023-05-15T00:25:19;98559.25;;;8.33;100.00
77877;BME280;67251;50.844;7.978;2023-05-15T00:27:45;98557.56;;;8.32;100.00
77877;BME280;67251;50.844;7.978;2023-05-15T00:30:10;98564.13;;;8.29;100.00
77877;BME280;67251;50.844;7.978;2023-05-15T00:32:36;98556.31;;;8.28;100.00
77877;BME280;67251;50.844;7.978;2023-05-15T00:35:01;98557.97;;;8.29;100.00
77877;BME280;67251;50.844;7.978;2023-05-15T00:37:27;98551.81;;;8.28;100.00
77877;BME280;67251;50.844;7.978;2023-05-15T00:39:52;98553.63;;;8.28;100.00
77877;BME280;67251;50.844;7.978;2023-05-15T00:42:18;98554.66;;;8.27;100.00
77877;BME280;67251;50.844;7.978;2023-05-15T00:44:44;98552.81;;;8.27;100.00
77877;BME280;67251;50.844;7.978;2023-05-15T00:47:10;98550.16;;;8.27;100.00
77877;BME280;67251;50.844;7.978;2023-05-15T00:49:36;98564.50;;;8.26;100.00
77877;BME280;67251;50.844;7.978;2023-05-15T00:52:02;98546.88;;;8.25;100.00
77877;BME280;67251;50.844;7.978;2023-05-15T00:54:28;98545.03;;;8.26;100.00
77877;BME280;67251;50.844;7.978;2023-05-15T00:56:58;98546.22;;;8.23;100.00
77877;BME280;67251;50.844;7.978;2023-05-15T00:59:25;98538.22;;;8.23;100.00
77877;BME280;67251;50.844;7.978;2023-05-15T01:01:52;98539.81;;;8.17;100.00
77877;BME280;67251;50.844;7.978;2023-05-15T01:04:17;98539.00;;;8.17;100.00
77877;BME280;67251;50.844;7.978;2023-05-15T01:06:42;98532.22;;;8.14;100.00
77877;BME280;67251;50.844;7.978;2023-05-15T01:09:09;98544.28;;;8.10;100.00
77877;BME280;67251;50.844;7.978;2023-05-15T01:11:34;98550.81;;;8.08;100.00
77877;BME280;67251;50.844;7.978;2023-05-15T01:14:03;98550.19;;;8.06;100.00
77877;BME280;67251;50.844;7.978;2023-05-15T01:16:33;98540.50;;;7.98;100.00
77877;BME280;67251;50.844;7.978;2023-05-15T01:18:58;98546.41;;;7.93;100.00
77877;BME280;67251;50.844;7.978;2023-05-15T01:30:13;98533.97;;;7.79;100.00
77877;BME280;67251;50.844;7.978;2023-05-15T01:32:48;98534.63;;;7.81;100.00
77877;BME280;67251;50.844;7.978;2023-05-15T01:35:16;98541.13;;;7.79;100.00
77877;BME280;67251;50.844;7.978;2023-05-15T01:37:48;98542.34;;;7.76;100.00
77877;BME280;67251;50.844;7.978;2023-05-15T01:40:17;98550.53;;;7.75;100.00
77877;BME280;67251;50.844;7.978;2023-05-15T01:42:53;98554.00;;;7.75;100.00
77877;BME280;67251;50.844;7.978;2023-05-15T01:45:20;98555.84;;;7.75;100.00
77877;BME280;67251;50.844;7.978;2023-05-15T01:47:48;98551.16;;;7.77;100.00
77877;BME280;67251;50.844;7.978;2023-05-15T01:53:42;98542.41;;;7.83;100.00
77877;BME280;67251;50.844;7.978;2023-05-15T01:56:11;98544.88;;;7.84;100.00
77877;BME280;67251;50.844;7.978;2023-05-15T01:58:37;98547.38;;;7.86;100.00
77877;BME280;67251;50.844;7.978;2023-05-15T02:01:04;98541.13;;;7.79;100.00
77877;BME280;67251;50.844;7.978;2023-05-15T02:03:31;98546.41;;;7.72;100.00
77877;BME280;67251;50.844;7.978;2023-05-15T02:06:04;98543.31;;;7.68;100.00
77877;BME280;67251;50.844;7.978;2023-05-15T02:08:31;98547.34;;;7.64;100.00
77877;BME280;67251;50.844;7.978;2023-05-15T02:10:58;98545.06;;;7.61;100.00
77877;BME280;67251;50.844;7.978;2023-05-15T02:13:25;98535.63;;;7.59;100.00
77877;BME280;67251;50.844;7.978;2023-05-15T02:15:51;98531.94;;;7.60;100.00
77877;BME280;67251;50.844;7.978;2023-05-15T02:18:17;98534.59;;;7.60;100.00
77877;BME280;67251;50.844;7.978;2023-05-15T02:20:42;98528.47;;;7.59;100.00
77877;BME280;67251;50.844;7.978;2023-05-15T02:23:08;98536.19;;;7.54;100.00
77877;BME280;67251;50.844;7.978;2023-05-15T02:25:45;98530.22;;;7.52;100.00
77877;BME280;67251;50.844;7.978;2023-05-15T02:28:24;98527.38;;;7.54;100.00
77877;BME280;67251;50.844;7.978;2023-05-15T02:31:00;98526.13;;;7.50;100.00
77877;BME280;67251;50.844;7.978;2023-05-15T02:33:36;98528.56;;;7.51;100.00
77877;BME280;67251;50.844;7.978;2023-05-15T02:36:08;98525.47;;;7.48;100.00
77877;BME280;67251;50.844;7.978;2023-05-15T02:38:45;98527.69;;;7.44;100.00
77877;BME280;67251;50.844;7.978;2023-05-15T02:41:12;98522.75;;;7.41;100.00
77877;BME280;67251;50.844;7.978;2023-05-15T02:43:39;98526.41;;;7.40;100.00
77877;BME280;67251;50.844;7.978;2023-05-15T02:46:06;98529.56;;;7.29;100.00
77877;BME280;67251;50.844;7.978;2023-05-15T02:48:33;98527.47;;;7.24;100.00
77877;BME280;67251;50.844;7.978;2023-05-15T02:51:00;98523.16;;;7.23;100.00
77877;BME280;67251;50.844;7.978;2023-05-15T02:53:25;98528.88;;;7.20;100.00
77877;BME280;67251;50.844;7.978;2023-05-15T02:55:51;98528.41;;;7.16;100.00
77877;BME280;67251;50.844;7.978;2023-05-15T02:58:16;98532.53;;;7.19;100.00
77877;BME280;67251;50.844;7.978;2023-05-15T03:00:42;98526.22;;;7.20;100.00
77877;BME280;67251;50.844;7.978;2023-05-15T03:03:07;98533.34;;;7.20;100.00
77877;BME280;67251;50.844;7.978;2023-05-15T03:05:32;98533.72;;;7.16;100.00
77877;BME280;67251;50.844;7.978;2023-05-15T03:07:59;98526.94;;;7.14;100.00
77877;BME280;67251;50.844;7.978;2023-05-15T03:10:24;98531.44;;;7.13;100.00
77877;BME280;67251;50.844;7.978;2023-05-15T03:12:50;98528.41;;;7.16;100.00
77877;BME280;67251;50.844;7.978;2023-05-15T03:15:15;98526.78;;;7.15;100.00
77877;BME280;67251;50.844;7.978;2023-05-15T03:17:41;98527.97;;;7.13;100.00
77877;BME280;67251;50.844;7.978;2023-05-15T03:20:07;98524.47;;;7.12;100.00
77877;BME280;67251;50.844;7.978;2023-05-15T03:22:33;98515.47;;;7.13;100.00
77877;BME280;67251;50.844;7.978;2023-05-15T03:24:59;98521.44;;;7.15;100.00
77877;BME280;67251;50.844;7.978;2023-05-15T03:27:26;98523.09;;;7.16;100.00
77877;BME280;67251;50.844;7.978;2023-05-15T03:29:51;98523.56;;;7.20;100.00
77877;BME280;67251;50.844;7.978;2023-05-15T03:32:17;98524.16;;;7.22;100.00
77877;BME280;67251;50.844;7.978;2023-05-15T03:34:42;98522.00;;;7.11;100.00
77877;BME280;67251;50.844;7.978;2023-05-15T03:37:08;98521.09;;;7.04;100.00
77877;BME280;67251;50.844;7.978;2023-05-15T03:39:33;98524.56;;;7.04;100.00
77877;BME280;67251;50.844;7.978;2023-05-15T03:41:58;98528.25;;;7.03;100.00
77877;BME280;67251;50.844;7.978;2023-05-15T03:44:24;98524.56;;;7.04;100.00
77877;BME280;67251;50.844;7.978;2023-05-15T03:46:49;98529.00;;;6.97;100.00
77877;BME280;67251;50.844;7.978;2023-05-15T03:49:14;98519.81;;;7.00;100.00
77877;BME280;67251;50.844;7.978;2023-05-15T03:51:40;98521.38;;;6.94;100.00
77877;BME280;67251;50.844;7.978;2023-05-15T03:54:05;98514.25;;;6.80;100.00
77877;BME280;67251;50.844;7.978;2023-05-15T03:56:31;98520.31;;;6.74;100.00
77877;BME280;67251;50.844;7.978;2023-05-15T03:58:57;98521.97;;;6.75;100.00
77877;BME280;67251;50.844;7.978;2023-05-15T04:01:23;98522.72;;;6.69;100.00
77877;BME280;67251;50.844;7.978;2023-05-15T04:03:48;98526.00;;;6.71;100.00
77877;BME280;67251;50.844;7.978;2023-05-15T04:06:13;98530.50;;;6.70;100.00
77877;BME280;67251;50.844;7.978;2023-05-15T04:08:39;98530.28;;;6.72;100.00
77877;BME280;67251;50.844;7.978;2023-05-15T04:11:04;98530.94;;;6.74;100.00
77877;BME280;67251;50.844;7.978;2023-05-15T04:13:30;98531.38;;;6.77;100.00
77877;BME280;67251;50.844;7.978;2023-05-15T04:15:55;98527.34;;;6.81;100.00
77877;BME280;67251;50.844;7.978;2023-05-15T04:18:20;98530.28;;;6.86;100.00
77877;BME280;67251;50.844;7.978;2023-05-15T04:20:46;98526.25;;;6.90;100.00
77877;BME280;67251;50.844;7.978;2023-05-15T04:23:11;98519.75;;;6.93;100.00
77877;BME280;67251;50.844;7.978;2023-05-15T04:25:36;98524.88;;;6.95;100.00
77877;BME280;67251;50.844;7.978;2023-05-15T04:28:02;98520.84;;;6.99;100.00
77877;BME280;67251;50.844;7.978;2023-05-15T04:30:27;98530.56;;;7.06;100.00
77877;BME280;67251;50.844;7.978;2023-05-15T04:32:53;98529.78;;;7.12;100.00
77877;BME280;67251;50.844;7.978;2023-05-15T04:35:18;98521.44;;;7.15;100.00
77877;BME280;67251;50.844;7.978;2023-05-15T04:37:43;98524.28;;;7.14;100.00
77877;BME280;67251;50.844;7.978;2023-05-15T04:40:12;98521.63;;;7.14;100.00
77877;BME280;67251;50.844;7.978;2023-05-15T04:42:39;98529.03;;;7.18;100.00
77877;BME280;67251;50.844;7.978;2023-05-15T04:45:05;98528.22;;;7.18;100.00
77877;BME280;67251;50.844;7.978;2023-05-15T04:47:31;98534.19;;;7.20;100.00
77877;BME280;67251;50.844;7.978;2023-05-15T04:49:56;98525.75;;;7.16;100.00
77877;BME280;67251;50.844;7.978;2023-05-15T04:52:21;98533.91;;;7.15;100.00
77877;BME280;67251;50.844;7.978;2023-05-15T04:54:47;98528.03;;;7.20;100.00
77877;BME280;67251;50.844;7.978;2023-05-15T04:57:15;98536.56;;;7.30;100.00
77877;BME280;67251;50.844;7.978;2023-05-15T04:59:41;98536.41;;;7.38;100.00
77877;BME280;67251;50.844;7.978;2023-05-15T05:02:08;98534.66;;;7.45;100.00
77877;BME280;67251;50.844;7.978;2023-05-15T05:04:34;98532.25;;;7.50;100.00
77877;BME280;67251;50.844;7.978;2023-05-15T05:06:59;98538.84;;;7.54;100.00
77877;BME280;67251;50.844;7.978;2023-05-15T05:09:25;98541.78;;;7.59;100.00
77877;BME280;67251;50.844;7.978;2023-05-15T05:11:50;98533.47;;;7.69;100.00
77877;BME280;67251;50.844;7.978;2023-05-15T05:14:15;98537.84;;;7.77;100.00
77877;BME280;67251;50.844;7.978;2023-05-15T05:16:43;98543.44;;;7.82;100.00
77877;BME280;67251;50.844;7.978;2023-05-15T05:19:09;98530.13;;;7.82;99.81
77877;BME280;67251;50.844;7.978;2023-05-15T05:21:35;98542.03;;;7.86;99.72
77877;BME280;67251;50.844;7.978;2023-05-15T05:24:00;98539.19;;;7.87;98.85
77877;BME280;67251;50.844;7.978;2023-05-15T05:26:26;98544.75;;;7.92;98.74
77877;BME280;67251;50.844;7.978;2023-05-15T05:28:52;98540.88;;;7.95;97.41
77877;BME280;67251;50.844;7.978;2023-05-15T05:31:17;98545.44;;;8.01;97.44
77877;BME280;67251;50.844;7.978;2023-05-15T05:33:43;98546.31;;;8.08;96.98
77877;BME280;67251;50.844;7.978;2023-05-15T05:36:09;98541.38;;;8.05;96.60
77877;BME280;67251;50.844;7.978;2023-05-15T05:38:35;98536.88;;;8.06;96.64
77877;BME280;67251;50.844;7.978;2023-05-15T05:41:00;98544.91;;;8.12;96.65
77877;BME280;67251;50.844;7.978;2023-05-15T05:43:27;98537.41;;;8.23;96.47
77877;BME280;67251;50.844;7.978;2023-05-15T05:45:52;98538.91;;;8.32;96.21
77877;BME280;67251;50.844;7.978;2023-05-15T05:48:18;98545.16;;;8.39;95.74
77877;BME280;67251;50.844;7.978;2023-05-15T05:50:43;98540.28;;;8.49;95.92
77877;BME280;67251;50.844;7.978;2023-05-15T05:53:09;98542.63;;;8.65;95.13
77877;BME280;67251;50.844;7.978;2023-05-15T05:55:34;98547.81;;;8.74;94.41
77877;BME280;67251;50.844;7.978;2023-05-15T05:58:00;98543.38;;;8.81;94.19
77877;BME280;67251;50.844;7.978;2023-05-15T06:00:26;98540.94;;;8.86;94.16
77877;BME280;67251;50.844;7.978;2023-05-15T06:02:55;98539.91;;;8.93;93.61
77877;BME280;67251;50.844;7.978;2023-05-15T06:05:21;98534.66;;;9.07;93.24
77877;BME280;67251;50.844;7.978;2023-05-15T06:07:47;98539.66;;;9.23;92.73
77877;BME280;67251;50.844;7.978;2023-05-15T06:10:13;98547.22;;;9.19;91.22
77877;BME280;67251;50.844;7.978;2023-05-15T06:12:38;98544.78;;;9.25;91.53
77877;BME280;67251;50.844;7.978;2023-05-15T06:15:04;98542.31;;;9.23;90.73
77877;BME280;67251;50.844;7.978;2023-05-15T06:17:30;98553.84;;;9.30;90.79
77877;BME280;67251;50.844;7.978;2023-05-15T06:19:55;98548.94;;;9.34;90.51
77877;BME280;67251;50.844;7.978;2023-05-15T06:22:21;98544.84;;;9.38;90.57
77877;BME280;67251;50.844;7.978;2023-05-15T06:24:46;98548.13;;;9.40;90.38
77877;BME280;67251;50.844;7.978;2023-05-15T06:27:11;98545.25;;;9.41;90.65
77877;BME280;67251;50.844;7.978;2023-05-15T06:29:37;98540.75;;;9.42;90.35
77877;BME280;67251;50.844;7.978;2023-05-15T06:32:02;98548.78;;;9.55;90.12
77877;BME280;67251;50.844;7.978;2023-05-15T06:34:28;98552.50;;;9.67;89.96
77877;BME280;67251;50.844;7.978;2023-05-15T06:36:53;98550.06;;;9.86;89.10
77877;BME280;67251;50.844;7.978;2023-05-15T06:39:18;98541.03;;;10.00;88.29
77877;BME280;67251;50.844;7.978;2023-05-15T06:41:44;98543.91;;;10.18;87.04
77877;BME280;67251;50.844;7.978;2023-05-15T06:44:09;98536.13;;;10.30;86.91
77877;BME280;67251;50.844;7.978;2023-05-15T06:46:35;98541.47;;;10.43;87.14
77877;BME280;67251;50.844;7.978;2023-05-15T06:49:00;98546.41;;;10.46;86.72
77877;BME280;67251;50.844;7.978;2023-05-15T06:51:25;98547.19;;;10.54;86.78
77877;BME280;67251;50.844;7.978;2023-05-15T06:53:51;98555.22;;;10.54;86.78
77877;BME280;67251;50.844;7.978;2023-05-15T06:56:16;98553.59;;;10.53;86.40
77877;BME280;67251;50.844;7.978;2023-05-15T06:58:41;98549.69;;;10.48;86.92
77877;BME280;67251;50.844;7.978;2023-05-15T07:01:08;98549.28;;;10.52;87.37
77877;BME280;67251;50.844;7.978;2023-05-15T07:03:33;98545.78;;;10.64;87.54
77877;BME280;67251;50.844;7.978;2023-05-15T07:05:59;98542.03;;;10.72;87.43
77877;BME280;67251;50.844;7.978;2023-05-15T07:08:24;98542.84;;;10.72;87.69
77877;BME280;67251;50.844;7.978;2023-05-15T07:10:50;98544.91;;;10.84;87.16
77877;BME280;67251;50.844;7.978;2023-05-15T07:13:16;98542.97;;;11.04;86.50
77877;BME280;67251;50.844;7.978;2023-05-15T07:15:44;98538.66;;;11.03;85.53
77877;BME280;67251;50.844;7.978;2023-05-15T07:18:10;98548.53;;;10.96;86.02
77877;BME280;67251;50.844;7.978;2023-05-15T07:20:35;98554.16;;;10.81;86.58
77877;BME280;67251;50.844;7.978;2023-05-15T07:23:00;98550.06;;;10.79;86.04
77877;BME280;67251;50.844;7.978;2023-05-15T07:25:26;98546.28;;;11.06;85.46
77877;BME280;67251;50.844;7.978;2023-05-15T07:27:51;98541.66;;;11.26;84.74
77877;BME280;67251;50.844;7.978;2023-05-15T07:30:18;98547.72;;;11.47;84.83
77877;BME280;67251;50.844;7.978;2023-05-15T07:32:43;98547.72;;;11.54;84.32
77877;BME280;67251;50.844;7.978;2023-05-15T07:35:09;98553.25;;;11.52;84.27
77877;BME280;67251;50.844;7.978;2023-05-15T07:37:36;98545.63;;;11.56;83.91
77877;BME280;67251;50.844;7.978;2023-05-15T07:40:01;98551.38;;;11.59;83.24
77877;BME280;67251;50.844;7.978;2023-05-15T07:42:27;98550.50;;;11.65;83.70
77877;BME280;67251;50.844;7.978;2023-05-15T07:44:52;98546.78;;;11.66;83.32
77877;BME280;67251;50.844;7.978;2023-05-15T07:47:17;98539.38;;;11.68;83.21
77877;BME280;67251;50.844;7.978;2023-05-15T07:49:43;98551.25;;;11.86;82.20
77877;BME280;67251;50.844;7.978;2023-05-15T07:52:08;98547.16;;;11.76;81.91
77877;BME280;67251;50.844;7.978;2023-05-15T07:54:33;98551.25;;;11.86;82.40
77877;BME280;67251;50.844;7.978;2023-05-15T07:56:59;98547.38;;;12.07;82.16
77877;BME280;67251;50.844;7.978;2023-05-15T07:59:24;98544.38;;;12.21;80.52
77877;BME280;67251;50.844;7.978;2023-05-15T08:01:49;98545.16;;;12.28;79.83
77877;BME280;67251;50.844;7.978;2023-05-15T08:04:15;98548.97;;;12.39;80.01
77877;BME280;67251;50.844;7.978;2023-05-15T08:06:40;98540.00;;;12.52;79.77
77877;BME280;67251;50.844;7.978;2023-05-15T08:09:07;98545.81;;;12.67;79.04
77877;BME280;67251;50.844;7.978;2023-05-15T08:11:32;98540.25;;;12.87;78.33
77877;BME280;67251;50.844;7.978;2023-05-15T08:13:58;98541.50;;;13.03;77.64
77877;BME280;67251;50.844;7.978;2023-05-15T08:16:23;98540.91;;;13.19;77.15
77877;BME280;67251;50.844;7.978;2023-05-15T08:18:48;98535.69;;;13.43;76.62
77877;BME280;67251;50.844;7.978;2023-05-15T08:21:17;98537.16;;;13.69;74.61
77877;BME280;67251;50.844;7.978;2023-05-15T08:23:42;98538.97;;;13.75;75.23
77877;BME280;67251;50.844;7.978;2023-05-15T08:26:07;98536.25;;;13.45;75.28
77877;BME280;67251;50.844;7.978;2023-05-15T08:28:33;98537.13;;;13.57;74.88
77877;BME280;67251;50.844;7.978;2023-05-15T08:30:58;98533.41;;;13.88;73.29
77877;BME280;67251;50.844;7.978;2023-05-15T08:33:24;98532.16;;;14.38;71.19
77877;BME280;67251;50.844;7.978;2023-05-15T08:35:49;98532.31;;;14.66;70.69
77877;BME280;67251;50.844;7.978;2023-05-15T08:38:15;98526.66;;;14.91;68.42
77877;BME280;67251;50.844;7.978;2023-05-15T08:40:45;98532.25;;;15.13;68.99
77877;BME280;67251;50.844;7.978;2023-05-15T08:43:12;98527.06;;;15.52;67.85
77877;BME280;67251;50.844;7.978;2023-05-15T08:45:40;98528.75;;;15.81;66.62
77877;BME280;67251;50.844;7.978;2023-05-15T08:48:12;98530.28;;;15.77;66.87
77877;BME280;67251;50.844;7.978;2023-05-15T08:50:38;98532.31;;;15.70;66.43
77877;BME280;67251;50.844;7.978;2023-05-15T08:53:05;98525.84;;;15.71;66.58
77877;BME280;67251;50.844;7.978;2023-05-15T08:55:31;98521.28;;;15.72;66.49
77877;BME280;67251;50.844;7.978;2023-05-15T08:57:57;98522.94;;;15.90;65.16
77877;BME280;67251;50.844;7.978;2023-05-15T09:00:23;98519.06;;;16.14;64.75
77877;BME280;67251;50.844;7.978;2023-05-15T09:02:49;98527.53;;;16.23;64.54
77877;BME280;67251;50.844;7.978;2023-05-15T09:05:15;98526.31;;;16.30;64.42
77877;BME280;67251;50.844;7.978;2023-05-15T09:07:41;98531.13;;;15.95;65.70
77877;BME280;67251;50.844;7.978;2023-05-15T09:10:09;98526.69;;;15.60;65.65
77877;BME280;67251;50.844;7.978;2023-05-15T09:12:35;98519.44;;;16.06;64.89
77877;BME280;67251;50.844;7.978;2023-05-15T09:17:34;98510.47;;;18.52;57.72
77877;BME280;67251;50.844;7.978;2023-05-15T09:20:01;98513.41;;;18.45;56.86
77877;BME280;67251;50.844;7.978;2023-05-15T09:22:32;98510.16;;;18.11;57.09
77877;BME280;67251;50.844;7.978;2023-05-15T09:24:58;98517.13;;;18.02;59.83
77877;BME280;67251;50.844;7.978;2023-05-15T09:27:23;98509.44;;;18.63;54.65
77877;BME280;67251;50.844;7.978;2023-05-15T09:29:50;98501.56;;;20.28;51.98
77877;BME280;67251;50.844;7.978;2023-05-15T09:32:18;98485.63;;;21.71;49.85
77877;BME280;67251;50.844;7.978;2023-05-15T09:34:44;98488.88;;;21.73;49.06
77877;BME280;67251;50.844;7.978;2023-05-15T09:37:12;98488.09;;;22.02;45.89
77877;BME280;67251;50.844;7.978;2023-05-15T09:39:51;98499.09;;;20.77;48.24
77877;BME280;67251;50.844;7.978;2023-05-15T09:42:16;98492.84;;;21.91;49.44
77877;BME280;67251;50.844;7.978;2023-05-15T09:44:43;98476.94;;;22.90;46.13
77877;BME280;67251;50.844;7.978;2023-05-15T09:47:09;98463.63;;;23.51;44.20
77877;BME280;67251;50.844;7.978;2023-05-15T09:49:35;98476.88;;;22.95;44.70
77877;BME280;67251;50.844;7.978;2023-05-15T09:52:01;98472.69;;;22.79;45.38
77877;BME280;67251;50.844;7.978;2023-05-15T09:54:27;98480.31;;;22.24;45.33
77877;BME280;67251;50.844;7.978;2023-05-15T09:56:54;98471.38;;;21.40;48.45
77877;BME280;67251;50.844;7.978;2023-05-15T09:59:20;98479.00;;;20.63;49.87
77877;BME280;67251;50.844;7.978;2023-05-15T10:01:47;98485.81;;;20.50;48.84
77877;BME280;67251;50.844;7.978;2023-05-15T10:04:13;98473.13;;;21.10;47.42
77877;BME280;67251;50.844;7.978;2023-05-15T10:06:40;98472.34;;;21.05;47.85
77877;BME280;67251;50.844;7.978;2023-05-15T10:09:06;98463.97;;;22.24;46.79
77877;BME280;67251;50.844;7.978;2023-05-15T10:11:36;98461.22;;;22.82;45.65
77877;BME280;67251;50.844;7.978;2023-05-15T10:14:05;98452.28;;;23.81;41.80
77877;BME280;67251;50.844;7.978;2023-05-15T10:16:33;98454.94;;;23.49;42.46
77877;BME280;67251;50.844;7.978;2023-05-15T10:19:02;98454.69;;;23.45;41.33
77877;BME280;67251;50.844;7.978;2023-05-15T10:21:33;98446.31;;;22.99;43.82
77877;BME280;67251;50.844;7.978;2023-05-15T10:23:59;98443.97;;;23.11;43.15
77877;BME280;67251;50.844;7.978;2023-05-15T10:26:38;98449.28;;;23.21;43.66
77877;BME280;67251;50.844;7.978;2023-05-15T10:29:12;98442.56;;;22.65;43.26
77877;BME280;67251;50.844;7.978;2023-05-15T10:31:41;98440.94;;;22.06;44.99
77877;BME280;67251;50.844;7.978;2023-05-15T10:34:07;98436.72;;;22.24;45.22
77877;BME280;67251;50.844;7.978;2023-05-15T10:36:34;98430.44;;;22.77;44.45
77877;BME280;67251;50.844;7.978;2023-05-15T10:39:04;98424.56;;;22.88;44.73
77877;BME280;67251;50.844;7.978;2023-05-15T10:41:36;98424.91;;;22.34;44.05
77877;BME280;67251;50.844;7.978;2023-05-15T10:44:02;98414.81;;;22.58;45.45
77877;BME280;67251;50.844;7.978;2023-05-15T10:46:29;98409.78;;;22.94;42.84
77877;BME280;67251;50.844;7.978;2023-05-15T10:48:55;98412.38;;;23.05;43.17
77877;BME280;67251;50.844;7.978;2023-05-15T10:51:28;98414.84;;;23.06;43.50
77877;BME280;67251;50.844;7.978;2023-05-15T10:53:59;98411.13;;;22.49;44.23
77877;BME280;67251;50.844;7.978;2023-05-15T10:56:29;98418.66;;;22.33;45.58
77877;BME280;67251;50.844;7.978;2023-05-15T10:58:55;98414.31;;;22.56;44.65
77877;BME280;67251;50.844;7.978;2023-05-15T11:01:31;98404.78;;;22.30;43.48
77877;BME280;67251;50.844;7.978;2023-05-15T11:04:23;98406.41;;;21.67;46.13
77877;BME280;67251;50.844;7.978;2023-05-15T11:07:10;98398.63;;;21.85;46.43
77877;BME280;67251;50.844;7.978;2023-05-15T11:09:37;98403.41;;;21.64;46.81
77877;BME280;67251;50.844;7.978;2023-05-15T11:12:04;98413.22;;;20.66;47.45
77877;BME280;67251;50.844;7.978;2023-05-15T11:14:32;98410.03;;;20.23;47.26
77877;BME280;67251;50.844;7.978;2023-05-15T11:16:59;98410.25;;;20.57;48.24
77877;BME280;67251;50.844;7.978;2023-05-15T11:22:15;98395.75;;;21.71;46.32
77877;BME280;67251;50.844;7.978;2023-05-15T11:37:53;98389.25;;;22.78;45.01
77877;BME280;67251;50.844;7.978;2023-05-15T11:43:01;98380.25;;;23.20;41.11
77877;BME280;67251;50.844;7.978;2023-05-15T11:45:29;98379.13;;;23.40;42.72
77877;BME280;67251;50.844;7.978;2023-05-15T11:47:55;98378.84;;;23.23;42.02
77877;BME280;67251;50.844;7.978;2023-05-15T11:50:22;98377.22;;;22.79;42.65
77877;BME280;67251;50.844;7.978;2023-05-15T11:52:51;98382.34;;;22.38;44.03
77877;BME280;67251;50.844;7.978;2023-05-15T11:55:18;98377.94;;;22.42;44.70
77877;BME280;67251;50.844;7.978;2023-05-15T11:57:47;98393.91;;;21.95;44.17
77877;BME280;67251;50.844;7.978;2023-05-15T12:00:12;98412.19;;;20.52;44.56
77877;BME280;67251;50.844;7.978;2023-05-15T12:02:38;98410.34;;;20.01;43.69
77877;BME280;67251;50.844;7.978;2023-05-15T12:05:07;98415.44;;;19.52;42.60
77877;BME280;67251;50.844;7.978;2023-05-15T12:07:37;98411.81;;;19.00;43.17
77877;BME280;67251;50.844;7.978;2023-05-15T12:10:03;98416.78;;;18.61;44.20
77877;BME280;67251;50.844;7.978;2023-05-15T12:12:29;98414.38;;;18.17;44.77
77877;BME280;67251;50.844;7.978;2023-05-15T12:14:57;98414.31;;;17.48;46.27
77877;BME280;67251;50.844;7.978;2023-05-15T12:17:23;98412.59;;;17.09;47.76
77877;BME280;67251;50.844;7.978;2023-05-15T12:19:50;98416.00;;;17.00;49.35
77877;BME280;67251;50.844;7.978;2023-05-15T12:22:16;98414.50;;;16.87;50.03
77877;BME280;67251;50.844;7.978;2023-05-15T12:24:43;98411.41;;;16.78;50.60
77877;BME280;67251;50.844;7.978;2023-05-15T12:27:09;98407.03;;;16.72;51.79
77877;BME280;67251;50.844;7.978;2023-05-15T12:29:36;98415.88;;;16.51;52.25
77877;BME280;67251;50.844;7.978;2023-05-15T12:32:02;98420.19;;;16.47;53.65
77877;BME280;67251;50.844;7.978;2023-05-15T12:34:28;98419.59;;;16.45;55.87
77877;BME280;67251;50.844;7.978;2023-05-15T12:36:54;98419.25;;;16.02;60.98
77877;BME280;67251;50.844;7.978;2023-05-15T12:39:19;98404.09;;;15.51;61.91
77877;BME280;67251;50.844;7.978;2023-05-15T12:41:45;98411.84;;;15.47;62.16
77877;BME280;67251;50.844;7.978;2023-05-15T12:44:17;98422.81;;;15.41;65.58
77877;BME280;67251;50.844;7.978;2023-05-15T12:46:42;98434.41;;;15.13;66.75
77877;BME280;67251;50.844;7.978;2023-05-15T12:49:07;98437.75;;;14.91;64.84
77877;BME280;67251;50.844;7.978;2023-05-15T12:51:33;98433.84;;;14.70;65.69
77877;BME280;67251;50.844;7.978;2023-05-15T12:53:58;98461.34;;;14.25;66.20
77877;BME280;67251;50.844;7.978;2023-05-15T12:56:23;98456.44;;;13.87;67.91
77877;BME280;67251;50.844;7.978;2023-05-15T12:58:49;98455.94;;;13.67;70.18
77877;BME280;67251;50.844;7.978;2023-05-15T13:01:15;98456.88;;;13.30;71.04
77877;BME280;67251;50.844;7.978;2023-05-15T13:03:42;98442.75;;;13.17;72.18
77877;BME280;67251;50.844;7.978;2023-05-15T13:06:09;98434.00;;;13.10;72.85
77877;BME280;67251;50.844;7.978;2023-05-15T13:08:39;98430.81;;;12.83;73.32
77877;BME280;67251;50.844;7.978;2023-05-15T13:11:10;98427.63;;;12.74;73.94
77877;BME280;67251;50.844;7.978;2023-05-15T13:13:44;98422.63;;;12.59;74.65
77877;BME280;67251;50.844;7.978;2023-05-15T13:16:18;98420.09;;;12.46;76.18
77877;BME280;67251;50.844;7.978;2023-05-15T13:18:43;98407.72;;;12.26;77.41
77877;BME280;67251;50.844;7.978;2023-05-15T13:21:09;98420.84;;;12.16;78.36
77877;BME280;67251;50.844;7.978;2023-05-15T13:23:34;98421.94;;;12.09;77.39
77877;BME280;67251;50.844;7.978;2023-05-15T13:25:59;98436.22;;;12.02;77.20
77877;BME280;67251;50.844;7.978;2023-05-15T13:28:25;98431.50;;;11.73;79.69
77877;BME280;67251;50.844;7.978;2023-05-15T13:30:50;98425.41;;;11.34;83.79
77877;BME280;67251;50.844;7.978;2023-05-15T13:33:15;98426.03;;;10.98;85.34